sensor_id;sensor_type;location;lat;lon;timestamp;P1;durP1;ratioP1;P2;durP2;ratioP2
36817;SDS011;22761;51.542;16.450;2022-08-19T00:00:33;11.83;;;9.60;;
36817;SDS011;22761;51.542;16.450;2022-08-19T00:03:06;10.53;;;8.80;;
36817;SDS011;22761;51.542;16.450;2022-08-19T00:05:32;11.88;;;9.40;;
36817;SDS011;22761;51.542;16.450;2022-08-19T00:08:00;12.98;;;9.33;;
36817;SDS011;22761;51.542;16.450;2022-08-19T00:10:28;12.90;;;9.60;;
36817;SDS011;22761;51.542;16.450;2022-08-19T00:12:55;13.20;;;10.45;;
36817;SDS011;22761;51.542;16.450;2022-08-19T00:15:22;11.05;;;9.83;;
36817;SDS011;22761;51.542;16.450;2022-08-19T00:17:49;11.70;;;9.48;;
36817;SDS011;22761;51.542;16.450;2022-08-19T00:20:17;13.68;;;10.18;;
36817;SDS011;22761;51.542;16.450;2022-08-19T00:22:47;13.28;;;10.40;;
36817;SDS011;22761;51.542;16.450;2022-08-19T00:25:14;12.63;;;9.78;;
36817;SDS011;22761;51.542;16.450;2022-08-19T00:27:43;11.10;;;10.08;;
36817;SDS011;22761;51.542;16.450;2022-08-19T00:30:10;11.33;;;9.55;;
36817;SDS011;22761;51.542;16.450;2022-08-19T00:32:38;10.28;;;9.25;;
36817;SDS011;22761;51.542;16.450;2022-08-19T00:35:06;10.28;;;9.13;;
36817;SDS011;22761;51.542;16.450;2022-08-19T00:37:35;10.10;;;9.08;;
36817;SDS011;22761;51.542;16.450;2022-08-19T00:40:03;12.60;;;8.95;;
36817;SDS011;22761;51.542;16.450;2022-08-19T00:42:32;10.32;;;8.98;;
36817;SDS011;22761;51.542;16.450;2022-08-19T00:44:59;10.88;;;9.78;;
36817;SDS011;22761;51.542;16.450;2022-08-19T00:47:27;10.38;;;9.08;;
36817;SDS011;22761;51.542;16.450;2022-08-19T00:49:56;13.40;;;9.58;;
36817;SDS011;22761;51.542;16.450;2022-08-19T00:52:26;10.98;;;9.80;;
36817;SDS011;22761;51.542;16.450;2022-08-19T00:54:57;11.45;;;9.40;;
36817;SDS011;22761;51.542;16.450;2022-08-19T00:57:30;14.18;;;10.25;;
36817;SDS011;22761;51.542;16.450;2022-08-19T01:00:03;11.57;;;9.83;;
36817;SDS011;22761;51.542;16.450;2022-08-19T01:02:34;12.40;;;9.38;;
36817;SDS011;22761;51.542;16.450;2022-08-19T01:05:03;11.85;;;9.38;;
36817;SDS011;22761;51.542;16.450;2022-08-19T01:07:34;11.08;;;8.93;;
36817;SDS011;22761;51.542;16.450;2022-08-19T01:10:04;12.07;;;8.83;;
36817;SDS011;22761;51.542;16.450;2022-08-19T01:12:36;12.73;;;9.15;;
36817;SDS011;22761;51.542;16.450;2022-08-19T01:15:08;12.63;;;9.30;;
36817;SDS011;22761;51.542;16.450;2022-08-19T01:17:39;9.93;;;8.90;;
36817;SDS011;22761;51.542;16.450;2022-08-19T01:20:12;14.65;;;8.78;;
36817;SDS011;22761;51.542;16.450;2022-08-19T01:22:47;14.20;;;9.00;;
36817;SDS011;22761;51.542;16.450;2022-08-19T01:25:19;9.53;;;8.28;;
36817;SDS011;22761;51.542;16.450;2022-08-19T01:27:50;10.03;;;8.90;;
36817;SDS011;22761;51.542;16.450;2022-08-19T01:30:20;9.68;;;8.58;;
36817;SDS011;22761;51.542;16.450;2022-08-19T01:32:50;10.32;;;9.20;;
36817;SDS011;22761;51.542;16.450;2022-08-19T01:35:19;11.22;;;9.05;;
36817;SDS011;22761;51.542;16.450;2022-08-19T01:37:53;11.68;;;9.18;;
36817;SDS011;22761;51.542;16.450;2022-08-19T01:40:26;10.88;;;9.15;;
36817;SDS011;22761;51.542;16.450;2022-08-19T01:42:59;11.03;;;9.03;;
36817;SDS011;22761;51.542;16.450;2022-08-19T01:45:27;9.95;;;8.88;;
36817;SDS011;22761;51.542;16.450;2022-08-19T01:47:57;9.48;;;8.48;;
36817;SDS011;22761;51.542;16.450;2022-08-19T01:50:26;11.73;;;8.43;;
36817;SDS011;22761;51.542;16.450;2022-08-19T01:52:53;11.22;;;8.13;;
36817;SDS011;22761;51.542;16.450;2022-08-19T01:55:21;10.38;;;8.40;;
36817;SDS011;22761;51.542;16.450;2022-08-19T01:57:50;10.35;;;8.55;;
36817;SDS011;22761;51.542;16.450;2022-08-19T02:00:22;10.88;;;8.20;;
36817;SDS011;22761;51.542;16.450;2022-08-19T02:02:53;11.03;;;8.20;;
36817;SDS011;22761;51.542;16.450;2022-08-19T02:05:20;9.70;;;8.70;;
36817;SDS011;22761;51.542;16.450;2022-08-19T02:07:47;9.55;;;8.53;;
36817;SDS011;22761;51.542;16.450;2022-08-19T02:10:16;11.28;;;8.45;;
36817;SDS011;22761;51.542;16.450;2022-08-19T02:12:47;12.28;;;8.93;;
36817;SDS011;22761;51.542;16.450;2022-08-19T02:15:15;10.13;;;9.05;;
36817;SDS011;22761;51.542;16.450;2022-08-19T02:17:45;9.70;;;8.70;;
36817;SDS011;22761;51.542;16.450;2022-08-19T02:20:14;14.85;;;8.40;;
36817;SDS011;22761;51.542;16.450;2022-08-19T02:22:43;13.15;;;9.58;;
36817;SDS011;22761;51.542;16.450;2022-08-19T02:25:11;10.15;;;8.65;;
36817;SDS011;22761;51.542;16.450;2022-08-19T02:30:09;11.93;;;8.38;;
36817;SDS011;22761;51.542;16.450;2022-08-19T02:32:39;9.28;;;8.03;;
36817;SDS011;22761;51.542;16.450;2022-08-19T02:35:07;11.10;;;8.85;;
36817;SDS011;22761;51.542;16.450;2022-08-19T02:37:35;13.43;;;8.68;;
36817;SDS011;22761;51.542;16.450;2022-08-19T02:40:20;9.55;;;8.40;;
36817;SDS011;22761;51.542;16.450;2022-08-19T02:42:47;11.50;;;8.83;;
36817;SDS011;22761;51.542;16.450;2022-08-19T02:45:14;12.85;;;8.63;;
36817;SDS011;22761;51.542;16.450;2022-08-19T02:47:42;9.75;;;8.75;;
36817;SDS011;22761;51.542;16.450;2022-08-19T02:50:09;9.93;;;8.88;;
36817;SDS011;22761;51.542;16.450;2022-08-19T02:52:36;11.70;;;9.35;;
36817;SDS011;22761;51.542;16.450;2022-08-19T02:55:04;10.25;;;9.25;;
36817;SDS011;22761;51.542;16.450;2022-08-19T02:57:32;10.98;;;8.98;;
36817;SDS011;22761;51.542;16.450;2022-08-19T03:00:00;11.90;;;9.20;;
36817;SDS011;22761;51.542;16.450;2022-08-19T03:02:27;12.82;;;9.35;;
36817;SDS011;22761;51.542;16.450;2022-08-19T03:04:54;11.65;;;8.95;;
36817;SDS011;22761;51.542;16.450;2022-08-19T03:07:21;11.45;;;9.10;;
36817;SDS011;22761;51.542;16.450;2022-08-19T03:09:48;13.38;;;8.85;;
36817;SDS011;22761;51.542;16.450;2022-08-19T03:12:15;10.55;;;8.75;;
36817;SDS011;22761;51.542;16.450;2022-08-19T03:14:42;10.25;;;9.15;;
36817;SDS011;22761;51.542;16.450;2022-08-19T03:17:11;10.35;;;9.35;;
36817;SDS011;22761;51.542;16.450;2022-08-19T03:19:38;10.08;;;8.88;;
36817;SDS011;22761;51.542;16.450;2022-08-19T03:22:05;13.22;;;9.88;;
36817;SDS011;22761;51.542;16.450;2022-08-19T03:24:33;10.85;;;8.38;;
36817;SDS011;22761;51.542;16.450;2022-08-19T03:27:01;10.50;;;9.38;;
36817;SDS011;22761;51.542;16.450;2022-08-19T03:29:30;12.67;;;9.40;;
36817;SDS011;22761;51.542;16.450;2022-08-19T03:31:59;14.23;;;9.60;;
36817;SDS011;22761;51.542;16.450;2022-08-19T03:34:28;10.63;;;9.35;;
36817;SDS011;22761;51.542;16.450;2022-08-19T03:36:57;10.05;;;9.05;;
36817;SDS011;22761;51.542;16.450;2022-08-19T03:39:27;11.18;;;9.13;;
36817;SDS011;22761;51.542;16.450;2022-08-19T03:41:55;11.80;;;9.58;;
36817;SDS011;22761;51.542;16.450;2022-08-19T03:44:23;10.70;;;8.38;;
36817;SDS011;22761;51.542;16.450;2022-08-19T03:46:51;9.65;;;8.65;;
36817;SDS011;22761;51.542;16.450;2022-08-19T03:49:23;10.60;;;9.40;;
36817;SDS011;22761;51.542;16.450;2022-08-19T03:51:54;10.18;;;8.48;;
36817;SDS011;22761;51.542;16.450;2022-08-19T03:54:24;11.83;;;8.93;;
36817;SDS011;22761;51.542;16.450;2022-08-19T03:59:26;9.73;;;8.60;;
36817;SDS011;22761;51.542;16.450;2022-08-19T04:01:57;10.60;;;8.50;;
36817;SDS011;22761;51.542;16.450;2022-08-19T04:04:27;10.53;;;8.23;;
36817;SDS011;22761;51.542;16.450;2022-08-19T04:06:55;10.03;;;8.93;;
36817;SDS011;22761;51.542;16.450;2022-08-19T04:09:23;11.00;;;8.63;;
36817;SDS011;22761;51.542;16.450;2022-08-19T04:11:53;9.75;;;8.58;;
36817;SDS011;22761;51.542;16.450;2022-08-19T04:14:23;9.95;;;8.63;;
36817;SDS011;22761;51.542;16.450;2022-08-19T04:16:54;9.38;;;8.48;;
36817;SDS011;22761;51.542;16.450;2022-08-19T04:19:21;11.30;;;8.98;;
36817;SDS011;22761;51.542;16.450;2022-08-19T04:21:50;11.48;;;9.05;;
36817;SDS011;22761;51.542;16.450;2022-08-19T04:24:19;11.15;;;9.35;;
36817;SDS011;22761;51.542;16.450;2022-08-19T04:26:48;9.90;;;8.90;;
36817;SDS011;22761;51.542;16.450;2022-08-19T04:29:24;11.73;;;9.45;;
36817;SDS011;22761;51.542;16.450;2022-08-19T04:31:51;9.55;;;8.55;;
36817;SDS011;22761;51.542;16.450;2022-08-19T04:34:20;10.53;;;9.00;;
36817;SDS011;22761;51.542;16.450;2022-08-19T04:36:51;14.25;;;9.35;;
36817;SDS011;22761;51.542;16.450;2022-08-19T04:39:22;9.65;;;8.70;;
36817;SDS011;22761;51.542;16.450;2022-08-19T04:41:54;10.10;;;9.10;;
36817;SDS011;22761;51.542;16.450;2022-08-19T04:44:39;14.43;;;9.35;;
36817;SDS011;22761;51.542;16.450;2022-08-19T04:47:07;10.85;;;8.93;;
36817;SDS011;22761;51.542;16.450;2022-08-19T04:49:34;10.55;;;9.45;;
36817;SDS011;22761;51.542;16.450;2022-08-19T04:52:02;12.50;;;9.23;;
36817;SDS011;22761;51.542;16.450;2022-08-19T04:54:29;12.85;;;9.40;;
36817;SDS011;22761;51.542;16.450;2022-08-19T04:56:56;10.45;;;9.35;;
36817;SDS011;22761;51.542;16.450;2022-08-19T04:59:23;11.05;;;9.65;;
36817;SDS011;22761;51.542;16.450;2022-08-19T05:01:54;13.32;;;9.13;;
36817;SDS011;22761;51.542;16.450;2022-08-19T05:04:28;10.72;;;9.05;;
36817;SDS011;22761;51.542;16.450;2022-08-19T05:06:56;10.55;;;8.88;;
36817;SDS011;22761;51.542;16.450;2022-08-19T05:09:24;12.33;;;9.40;;
36817;SDS011;22761;51.542;16.450;2022-08-19T05:11:51;12.40;;;9.50;;
36817;SDS011;22761;51.542;16.450;2022-08-19T05:14:18;9.83;;;8.85;;
36817;SDS011;22761;51.542;16.450;2022-08-19T05:16:47;10.83;;;9.57;;
36817;SDS011;22761;51.542;16.450;2022-08-19T05:19:14;11.60;;;9.38;;
36817;SDS011;22761;51.542;16.450;2022-08-19T05:22:00;10.70;;;9.63;;
36817;SDS011;22761;51.542;16.450;2022-08-19T05:24:45;12.15;;;9.98;;
36817;SDS011;22761;51.542;16.450;2022-08-19T05:27:12;11.95;;;9.78;;
36817;SDS011;22761;51.542;16.450;2022-08-19T05:29:39;10.55;;;9.08;;
36817;SDS011;22761;51.542;16.450;2022-08-19T05:32:06;11.03;;;9.10;;
36817;SDS011;22761;51.542;16.450;2022-08-19T05:34:36;12.58;;;9.33;;
36817;SDS011;22761;51.542;16.450;2022-08-19T05:37:04;11.30;;;8.83;;
36817;SDS011;22761;51.542;16.450;2022-08-19T05:39:35;12.93;;;9.60;;
36817;SDS011;22761;51.542;16.450;2022-08-19T05:42:04;13.13;;;10.03;;
36817;SDS011;22761;51.542;16.450;2022-08-19T05:44:35;10.10;;;9.08;;
36817;SDS011;22761;51.542;16.450;2022-08-19T05:47:07;10.55;;;9.55;;
36817;SDS011;22761;51.542;16.450;2022-08-19T05:49:35;10.65;;;9.55;;
36817;SDS011;22761;51.542;16.450;2022-08-19T05:52:08;10.93;;;9.78;;
36817;SDS011;22761;51.542;16.450;2022-08-19T05:54:34;11.70;;;9.55;;
36817;SDS011;22761;51.542;16.450;2022-08-19T05:57:07;11.93;;;9.78;;
36817;SDS011;22761;51.542;16.450;2022-08-19T05:59:35;12.30;;;10.40;;
36817;SDS011;22761;51.542;16.450;2022-08-19T06:02:03;12.40;;;10.05;;
36817;SDS011;22761;51.542;16.450;2022-08-19T06:04:33;12.78;;;10.08;;
36817;SDS011;22761;51.542;16.450;2022-08-19T06:07:00;11.48;;;9.85;;
36817;SDS011;22761;51.542;16.450;2022-08-19T06:09:28;12.37;;;10.25;;
36817;SDS011;22761;51.542;16.450;2022-08-19T06:11:57;12.00;;;10.30;;
36817;SDS011;22761;51.542;16.450;2022-08-19T06:14:28;13.80;;;11.03;;
36817;SDS011;22761;51.542;16.450;2022-08-19T06:16:57;12.35;;;11.18;;
36817;SDS011;22761;51.542;16.450;2022-08-19T06:19:25;12.73;;;11.25;;
36817;SDS011;22761;51.542;16.450;2022-08-19T06:21:55;12.25;;;10.95;;
36817;SDS011;22761;51.542;16.450;2022-08-19T06:24:24;13.10;;;11.60;;
36817;SDS011;22761;51.542;16.450;2022-08-19T06:26:53;15.28;;;11.63;;
36817;SDS011;22761;51.542;16.450;2022-08-19T06:29:22;13.85;;;11.88;;
36817;SDS011;22761;51.542;16.450;2022-08-19T06:31:52;12.58;;;11.28;;
36817;SDS011;22761;51.542;16.450;2022-08-19T06:34:22;12.40;;;11.10;;
36817;SDS011;22761;51.542;16.450;2022-08-19T06:36:51;14.45;;;12.23;;
36817;SDS011;22761;51.542;16.450;2022-08-19T06:39:20;15.18;;;11.35;;
36817;SDS011;22761;51.542;16.450;2022-08-19T06:41:51;15.00;;;11.95;;
36817;SDS011;22761;51.542;16.450;2022-08-19T06:44:22;13.55;;;12.15;;
36817;SDS011;22761;51.542;16.450;2022-08-19T06:46:53;16.48;;;13.43;;
36817;SDS011;22761;51.542;16.450;2022-08-19T06:49:22;13.60;;;12.00;;
36817;SDS011;22761;51.542;16.450;2022-08-19T06:51:50;14.85;;;12.10;;
36817;SDS011;22761;51.542;16.450;2022-08-19T06:54:18;14.25;;;11.93;;
36817;SDS011;22761;51.542;16.450;2022-08-19T06:56:45;14.28;;;12.05;;
36817;SDS011;22761;51.542;16.450;2022-08-19T06:59:14;17.40;;;13.03;;
36817;SDS011;22761;51.542;16.450;2022-08-19T07:01:46;15.00;;;12.60;;
36817;SDS011;22761;51.542;16.450;2022-08-19T07:04:17;16.32;;;12.98;;
36817;SDS011;22761;51.542;16.450;2022-08-19T07:06:55;17.55;;;13.15;;
36817;SDS011;22761;51.542;16.450;2022-08-19T07:09:25;14.00;;;12.58;;
36817;SDS011;22761;51.542;16.450;2022-08-19T07:11:53;17.07;;;12.70;;
36817;SDS011;22761;51.542;16.450;2022-08-19T07:14:25;13.65;;;12.20;;
36817;SDS011;22761;51.542;16.450;2022-08-19T07:16:54;15.88;;;12.70;;
36817;SDS011;22761;51.542;16.450;2022-08-19T07:19:24;13.18;;;11.75;;
36817;SDS011;22761;51.542;16.450;2022-08-19T07:21:53;14.75;;;11.70;;
36817;SDS011;22761;51.542;16.450;2022-08-19T07:24:24;12.75;;;11.05;;
36817;SDS011;22761;51.542;16.450;2022-08-19T07:26:53;15.05;;;11.18;;
36817;SDS011;22761;51.542;16.450;2022-08-19T07:29:24;14.13;;;12.00;;
36817;SDS011;22761;51.542;16.450;2022-08-19T07:31:51;13.20;;;11.65;;
36817;SDS011;22761;51.542;16.450;2022-08-19T07:34:20;15.48;;;12.53;;
36817;SDS011;22761;51.542;16.450;2022-08-19T07:36:48;15.13;;;12.28;;
36817;SDS011;22761;51.542;16.450;2022-08-19T07:39:17;13.00;;;11.50;;
36817;SDS011;22761;51.542;16.450;2022-08-19T07:41:47;18.75;;;11.48;;
36817;SDS011;22761;51.542;16.450;2022-08-19T07:44:14;15.28;;;11.55;;
36817;SDS011;22761;51.542;16.450;2022-08-19T07:46:43;14.83;;;11.57;;
36817;SDS011;22761;51.542;16.450;2022-08-19T07:49:13;15.90;;;11.43;;
36817;SDS011;22761;51.542;16.450;2022-08-19T07:51:42;25.55;;;12.68;;
36817;SDS011;22761;51.542;16.450;2022-08-19T07:54:09;15.68;;;12.00;;
36817;SDS011;22761;51.542;16.450;2022-08-19T07:56:37;12.25;;;10.95;;
36817;SDS011;22761;51.542;16.450;2022-08-19T07:59:05;14.83;;;11.30;;
36817;SDS011;22761;51.542;16.450;2022-08-19T08:01:33;14.85;;;10.63;;
36817;SDS011;22761;51.542;16.450;2022-08-19T08:04:00;13.43;;;10.88;;
36817;SDS011;22761;51.542;16.450;2022-08-19T08:06:46;17.32;;;10.95;;
36817;SDS011;22761;51.542;16.450;2022-08-19T08:09:34;14.73;;;9.75;;
36817;SDS011;22761;51.542;16.450;2022-08-19T08:12:05;13.68;;;9.73;;
36817;SDS011;22761;51.542;16.450;2022-08-19T08:14:46;13.65;;;10.15;;
36817;SDS011;22761;51.542;16.450;2022-08-19T08:17:17;11.45;;;9.68;;
36817;SDS011;22761;51.542;16.450;2022-08-19T08:19:46;12.75;;;9.20;;
36817;SDS011;22761;51.542;16.450;2022-08-19T08:22:15;14.18;;;8.75;;
36817;SDS011;22761;51.542;16.450;2022-08-19T08:25:04;11.03;;;9.63;;
36817;SDS011;22761;51.542;16.450;2022-08-19T08:27:37;11.03;;;8.60;;
36817;SDS011;22761;51.542;16.450;2022-08-19T08:30:07;11.83;;;8.48;;
36817;SDS011;22761;51.542;16.450;2022-08-19T08:32:37;14.18;;;8.18;;
36817;SDS011;22761;51.542;16.450;2022-08-19T08:35:12;9.48;;;7.95;;
36817;SDS011;22761;51.542;16.450;2022-08-19T08:37:45;11.40;;;8.40;;
36817;SDS011;22761;51.542;16.450;2022-08-19T08:43:22;9.40;;;7.47;;
36817;SDS011;22761;51.542;16.450;2022-08-19T08:46:06;13.38;;;8.53;;
36817;SDS011;22761;51.542;16.450;2022-08-19T08:51:28;10.03;;;7.10;;
36817;SDS011;22761;51.542;16.450;2022-08-19T08:54:07;7.80;;;6.80;;
36817;SDS011;22761;51.542;16.450;2022-08-19T08:56:34;8.75;;;7.12;;
36817;SDS011;22761;51.542;16.450;2022-08-19T08:59:04;8.65;;;6.87;;
36817;SDS011;22761;51.542;16.450;2022-08-19T09:01:48;9.60;;;7.22;;
36817;SDS011;22761;51.542;16.450;2022-08-19T09:04:16;9.75;;;7.50;;
36817;SDS011;22761;51.542;16.450;2022-08-19T09:09:26;9.88;;;8.15;;
36817;SDS011;22761;51.542;16.450;2022-08-19T09:14:41;9.20;;;7.33;;
36817;SDS011;22761;51.542;16.450;2022-08-19T09:17:24;10.40;;;7.58;;
36817;SDS011;22761;51.542;16.450;2022-08-19T09:22:30;11.18;;;7.72;;
36817;SDS011;22761;51.542;16.450;2022-08-19T09:24:57;9.53;;;7.35;;
36817;SDS011;22761;51.542;16.450;2022-08-19T09:27:24;8.93;;;6.97;;
36817;SDS011;22761;51.542;16.450;2022-08-19T09:29:53;9.08;;;6.80;;
36817;SDS011;22761;51.542;16.450;2022-08-19T09:32:20;11.20;;;6.95;;
36817;SDS011;22761;51.542;16.450;2022-08-19T09:34:49;10.03;;;7.33;;
36817;SDS011;22761;51.542;16.450;2022-08-19T09:37:18;8.10;;;6.62;;
36817;SDS011;22761;51.542;16.450;2022-08-19T09:39:45;6.85;;;6.20;;
36817;SDS011;22761;51.542;16.450;2022-08-19T09:42:12;8.28;;;6.28;;
36817;SDS011;22761;51.542;16.450;2022-08-19T09:44:40;10.45;;;6.65;;
36817;SDS011;22761;51.542;16.450;2022-08-19T09:47:09;7.87;;;6.72;;
36817;SDS011;22761;51.542;16.450;2022-08-19T09:49:38;9.05;;;6.45;;
36817;SDS011;22761;51.542;16.450;2022-08-19T09:52:10;9.70;;;6.47;;
36817;SDS011;22761;51.542;16.450;2022-08-19T09:54:38;10.15;;;6.87;;
36817;SDS011;22761;51.542;16.450;2022-08-19T09:57:05;8.15;;;6.53;;
36817;SDS011;22761;51.542;16.450;2022-08-19T09:59:32;7.33;;;6.62;;
36817;SDS011;22761;51.542;16.450;2022-08-19T10:02:00;8.68;;;7.03;;
36817;SDS011;22761;51.542;16.450;2022-08-19T10:04:27;9.98;;;7.10;;
36817;SDS011;22761;51.542;16.450;2022-08-19T10:06:56;7.45;;;6.70;;
36817;SDS011;22761;51.542;16.450;2022-08-19T10:09:23;10.58;;;7.03;;
36817;SDS011;22761;51.542;16.450;2022-08-19T10:11:50;7.58;;;6.53;;
36817;SDS011;22761;51.542;16.450;2022-08-19T10:14:17;8.23;;;6.22;;
36817;SDS011;22761;51.542;16.450;2022-08-19T10:16:46;10.10;;;6.83;;
36817;SDS011;22761;51.542;16.450;2022-08-19T10:19:13;7.25;;;6.50;;
36817;SDS011;22761;51.542;16.450;2022-08-19T10:21:40;9.43;;;6.62;;
36817;SDS011;22761;51.542;16.450;2022-08-19T10:24:07;10.98;;;6.75;;
36817;SDS011;22761;51.542;16.450;2022-08-19T10:26:36;12.78;;;6.67;;
36817;SDS011;22761;51.542;16.450;2022-08-19T10:29:06;7.87;;;6.65;;
36817;SDS011;22761;51.542;16.450;2022-08-19T10:31:33;9.90;;;6.85;;
36817;SDS011;22761;51.542;16.450;2022-08-19T10:34:00;7.50;;;6.80;;
36817;SDS011;22761;51.542;16.450;2022-08-19T10:36:34;7.10;;;6.40;;
36817;SDS011;22761;51.542;16.450;2022-08-19T10:39:02;8.88;;;6.30;;
36817;SDS011;22761;51.542;16.450;2022-08-19T10:41:33;7.62;;;6.42;;
36817;SDS011;22761;51.542;16.450;2022-08-19T10:44:03;9.08;;;6.72;;
36817;SDS011;22761;51.542;16.450;2022-08-19T10:46:37;7.35;;;6.65;;
36817;SDS011;22761;51.542;16.450;2022-08-19T10:49:08;7.65;;;6.85;;
36817;SDS011;22761;51.542;16.450;2022-08-19T10:51:37;10.45;;;6.95;;
36817;SDS011;22761;51.542;16.450;2022-08-19T10:54:25;8.90;;;6.47;;
36817;SDS011;22761;51.542;16.450;2022-08-19T10:56:55;8.28;;;6.83;;
36817;SDS011;22761;51.542;16.450;2022-08-19T10:59:22;6.80;;;6.10;;
36817;SDS011;22761;51.542;16.450;2022-08-19T11:01:53;7.75;;;6.83;;
36817;SDS011;22761;51.542;16.450;2022-08-19T11:04:27;9.55;;;6.58;;
36817;SDS011;22761;51.542;16.450;2022-08-19T11:06:55;9.78;;;6.55;;
36817;SDS011;22761;51.542;16.450;2022-08-19T11:09:24;7.37;;;6.62;;
36817;SDS011;22761;51.542;16.450;2022-08-19T11:11:55;11.22;;;7.22;;
36817;SDS011;22761;51.542;16.450;2022-08-19T11:14:23;7.55;;;6.83;;
36817;SDS011;22761;51.542;16.450;2022-08-19T11:16:51;9.68;;;6.92;;
36817;SDS011;22761;51.542;16.450;2022-08-19T11:19:20;8.78;;;6.78;;
36817;SDS011;22761;51.542;16.450;2022-08-19T11:24:18;9.23;;;6.97;;
36817;SDS011;22761;51.542;16.450;2022-08-19T11:26:49;10.23;;;6.58;;
36817;SDS011;22761;51.542;16.450;2022-08-19T11:29:20;10.10;;;6.47;;
36817;SDS011;22761;51.542;16.450;2022-08-19T11:31:48;7.30;;;6.53;;
36817;SDS011;22761;51.542;16.450;2022-08-19T11:34:17;8.45;;;7.10;;
36817;SDS011;22761;51.542;16.450;2022-08-19T11:36:51;9.50;;;7.00;;
36817;SDS011;22761;51.542;16.450;2022-08-19T11:39:19;7.62;;;6.83;;
36817;SDS011;22761;51.542;16.450;2022-08-19T11:41:48;7.92;;;6.83;;
36817;SDS011;22761;51.542;16.450;2022-08-19T11:44:15;10.18;;;7.20;;
36817;SDS011;22761;51.542;16.450;2022-08-19T11:46:42;8.30;;;6.87;;
36817;SDS011;22761;51.542;16.450;2022-08-19T11:49:16;8.40;;;7.47;;
36817;SDS011;22761;51.542;16.450;2022-08-19T11:51:46;8.63;;;7.60;;
36817;SDS011;22761;51.542;16.450;2022-08-19T11:54:16;9.85;;;7.60;;
36817;SDS011;22761;51.542;16.450;2022-08-19T11:56:44;9.60;;;7.78;;
36817;SDS011;22761;51.542;16.450;2022-08-19T11:59:11;10.43;;;7.90;;
36817;SDS011;22761;51.542;16.450;2022-08-19T12:01:38;11.00;;;8.30;;
36817;SDS011;22761;51.542;16.450;2022-08-19T12:04:07;12.00;;;9.43;;
36817;SDS011;22761;51.542;16.450;2022-08-19T12:06:36;11.15;;;10.10;;
36817;SDS011;22761;51.542;16.450;2022-08-19T12:09:06;11.48;;;10.30;;
36817;SDS011;22761;51.542;16.450;2022-08-19T12:11:35;13.00;;;11.80;;
36817;SDS011;22761;51.542;16.450;2022-08-19T12:14:04;15.70;;;11.03;;
36817;SDS011;22761;51.542;16.450;2022-08-19T12:16:34;13.58;;;12.33;;
36817;SDS011;22761;51.542;16.450;2022-08-19T12:19:03;14.95;;;12.15;;
36817;SDS011;22761;51.542;16.450;2022-08-19T12:21:32;13.22;;;12.00;;
36817;SDS011;22761;51.542;16.450;2022-08-19T12:24:02;13.53;;;12.28;;
36817;SDS011;22761;51.542;16.450;2022-08-19T12:26:31;14.28;;;12.88;;
36817;SDS011;22761;51.542;16.450;2022-08-19T12:28:59;13.95;;;12.65;;
36817;SDS011;22761;51.542;16.450;2022-08-19T12:31:27;15.95;;;12.85;;
36817;SDS011;22761;51.542;16.450;2022-08-19T12:33:55;14.20;;;12.58;;
36817;SDS011;22761;51.542;16.450;2022-08-19T12:36:22;16.23;;;12.85;;
36817;SDS011;22761;51.542;16.450;2022-08-19T12:38:51;15.03;;;13.50;;
36817;SDS011;22761;51.542;16.450;2022-08-19T12:41:19;16.40;;;13.15;;
36817;SDS011;22761;51.542;16.450;2022-08-19T12:43:48;15.05;;;13.40;;
36817;SDS011;22761;51.542;16.450;2022-08-19T12:46:16;15.70;;;14.25;;
36817;SDS011;22761;51.542;16.450;2022-08-19T12:51:13;16.48;;;14.07;;
36817;SDS011;22761;51.542;16.450;2022-08-19T12:53:43;16.90;;;15.10;;
36817;SDS011;22761;51.542;16.450;2022-08-19T12:56:11;16.80;;;15.32;;
36817;SDS011;22761;51.542;16.450;2022-08-19T12:58:40;18.12;;;15.18;;
36817;SDS011;22761;51.542;16.450;2022-08-19T13:01:09;16.90;;;15.40;;
36817;SDS011;22761;51.542;16.450;2022-08-19T13:03:39;15.90;;;14.40;;
36817;SDS011;22761;51.542;16.450;2022-08-19T13:06:06;17.07;;;15.28;;
36817;SDS011;22761;51.542;16.450;2022-08-19T13:08:35;15.45;;;14.15;;
36817;SDS011;22761;51.542;16.450;2022-08-19T13:11:09;17.27;;;14.37;;
36817;SDS011;22761;51.542;16.450;2022-08-19T13:13:41;15.60;;;14.05;;
36817;SDS011;22761;51.542;16.450;2022-08-19T13:16:10;18.07;;;14.85;;
36817;SDS011;22761;51.542;16.450;2022-08-19T13:18:39;15.40;;;13.88;;
36817;SDS011;22761;51.542;16.450;2022-08-19T13:21:11;14.87;;;13.28;;
36817;SDS011;22761;51.542;16.450;2022-08-19T13:23:39;16.10;;;14.47;;
36817;SDS011;22761;51.542;16.450;2022-08-19T13:26:07;15.00;;;13.50;;
36817;SDS011;22761;51.542;16.450;2022-08-19T13:28:36;15.10;;;13.78;;
36817;SDS011;22761;51.542;16.450;2022-08-19T13:31:22;14.63;;;13.15;;
36817;SDS011;22761;51.542;16.450;2022-08-19T13:34:12;14.55;;;13.25;;
36817;SDS011;22761;51.542;16.450;2022-08-19T13:36:40;13.98;;;12.55;;
36817;SDS011;22761;51.542;16.450;2022-08-19T13:39:07;13.78;;;12.47;;
36817;SDS011;22761;51.542;16.450;2022-08-19T13:41:35;13.78;;;12.53;;
36817;SDS011;22761;51.542;16.450;2022-08-19T13:44:03;13.80;;;12.37;;
36817;SDS011;22761;51.542;16.450;2022-08-19T13:46:32;18.92;;;13.13;;
36817;SDS011;22761;51.542;16.450;2022-08-19T13:49:00;12.75;;;11.55;;
36817;SDS011;22761;51.542;16.450;2022-08-19T13:51:30;12.93;;;11.68;;
36817;SDS011;22761;51.542;16.450;2022-08-19T13:53:57;14.13;;;12.82;;
36817;SDS011;22761;51.542;16.450;2022-08-19T13:56:24;14.95;;;12.20;;
36817;SDS011;22761;51.542;16.450;2022-08-19T13:58:52;14.85;;;11.90;;
36817;SDS011;22761;51.542;16.450;2022-08-19T14:01:20;13.15;;;11.83;;
36817;SDS011;22761;51.542;16.450;2022-08-19T14:03:48;13.13;;;11.85;;
36817;SDS011;22761;51.542;16.450;2022-08-19T14:06:15;12.35;;;11.30;;
36817;SDS011;22761;51.542;16.450;2022-08-19T14:08:42;12.10;;;10.90;;
36817;SDS011;22761;51.542;16.450;2022-08-19T14:11:10;13.25;;;11.93;;
36817;SDS011;22761;51.542;16.450;2022-08-19T14:13:39;12.35;;;11.25;;
36817;SDS011;22761;51.542;16.450;2022-08-19T14:16:26;13.85;;;12.45;;
36817;SDS011;22761;51.542;16.450;2022-08-19T14:19:36;12.82;;;11.53;;
36817;SDS011;22761;51.542;16.450;2022-08-19T14:22:03;12.98;;;11.68;;
36817;SDS011;22761;51.542;16.450;2022-08-19T14:24:31;12.28;;;11.18;;
36817;SDS011;22761;51.542;16.450;2022-08-19T14:26:58;12.93;;;11.25;;
36817;SDS011;22761;51.542;16.450;2022-08-19T14:29:25;14.60;;;11.70;;
36817;SDS011;22761;51.542;16.450;2022-08-19T14:31:54;13.90;;;11.40;;
36817;SDS011;22761;51.542;16.450;2022-08-19T14:34:25;12.10;;;11.00;;
36817;SDS011;22761;51.542;16.450;2022-08-19T14:36:53;15.25;;;12.20;;
36817;SDS011;22761;51.542;16.450;2022-08-19T14:39:20;12.07;;;10.90;;
36817;SDS011;22761;51.542;16.450;2022-08-19T14:41:47;12.23;;;11.12;;
36817;SDS011;22761;51.542;16.450;2022-08-19T14:44:14;12.15;;;11.03;;
36817;SDS011;22761;51.542;16.450;2022-08-19T14:46:41;14.40;;;10.80;;
36817;SDS011;22761;51.542;16.450;2022-08-19T14:49:10;11.60;;;10.53;;
36817;SDS011;22761;51.542;16.450;2022-08-19T14:51:37;11.60;;;10.50;;
36817;SDS011;22761;51.542;16.450;2022-08-19T14:54:04;11.85;;;10.25;;
36817;SDS011;22761;51.542;16.450;2022-08-19T14:56:31;12.93;;;11.48;;
36817;SDS011;22761;51.542;16.450;2022-08-19T14:58:58;12.47;;;10.90;;